sensor_id;sensor_type;location;lat;lon;timestamp;temperature;humidity
21039;DHT22;10678;51.002;4.786;2023-07-20T00:01:46;18.90;99.90
21039;DHT22;10678;51.002;4.786;2023-07-20T00:04:13;18.90;99.90
21039;DHT22;10678;51.002;4.786;2023-07-20T00:06:39;18.90;99.90
21039;DHT22;10678;51.002;4.786;2023-07-20T00:09:08;18.80;99.90
21039;DHT22;10678;51.002;4.786;2023-07-20T00:11:36;18.80;99.90
21039;DHT22;10678;51.002;4.786;2023-07-20T00:14:06;18.80;99.90
21039;DHT22;10678;51.002;4.786;2023-07-20T00:16:32;18.80;99.90
21039;DHT22;10678;51.002;4.786;2023-07-20T00:18:58;18.80;99.90
21039;DHT22;10678;51.002;4.786;2023-07-20T00:21:24;18.80;99.90
21039;DHT22;10678;51.002;4.786;2023-07-20T00:23:49;18.70;99.90
21039;DHT22;10678;51.002;4.786;2023-07-20T00:26:15;18.80;99.90
21039;DHT22;10678;51.002;4.786;2023-07-20T00:28:41;18.90;99.90
21039;DHT22;10678;51.002;4.786;2023-07-20T00:31:06;18.90;99.90
21039;DHT22;10678;51.002;4.786;2023-07-20T00:33:32;18.90;99.90
21039;DHT22;10678;51.002;4.786;2023-07-20T00:35:57;18.90;99.90
21039;DHT22;10678;51.002;4.786;2023-07-20T00:38:23;18.90;99.90
21039;DHT22;10678;51.002;4.786;2023-07-20T00:40:49;18.90;99.90
21039;DHT22;10678;51.002;4.786;2023-07-20T00:43:15;18.90;99.90
21039;DHT22;10678;51.002;4.786;2023-07-20T00:45:41;18.90;99.90
21039;DHT22;10678;51.002;4.786;2023-07-20T00:48:07;18.80;99.90
21039;DHT22;10678;51.002;4.786;2023-07-20T00:50:34;18.80;99.90
21039;DHT22;10678;51.002;4.786;2023-07-20T00:53:00;18.80;99.90
21039;DHT22;10678;51.002;4.786;2023-07-20T00:55:26;18.80;99.90
21039;DHT22;10678;51.002;4.786;2023-07-20T00:57:53;18.80;99.90
21039;DHT22;10678;51.002;4.786;2023-07-20T01:00:19;18.80;99.90
21039;DHT22;10678;51.002;4.786;2023-07-20T01:02:45;18.70;99.90
21039;DHT22;10678;51.002;4.786;2023-07-20T01:05:11;18.70;99.90
21039;DHT22;10678;51.002;4.786;2023-07-20T01:07:58;18.70;99.90
21039;DHT22;10678;51.002;4.786;2023-07-20T01:10:50;18.70;99.90
21039;DHT22;10678;51.002;4.786;2023-07-20T01:13:18;18.70;99.90
21039;DHT22;10678;51.002;4.786;2023-07-20T01:15:49;18.70;99.90
21039;DHT22;10678;51.002;4.786;2023-07-20T01:18:16;18.70;99.90
21039;DHT22;10678;51.002;4.786;2023-07-20T01:20:41;18.60;99.90
21039;DHT22;10678;51.002;4.786;2023-07-20T01:23:28;18.60;99.90
21039;DHT22;10678;51.002;4.786;2023-07-20T01:31:44;18.70;99.90
21039;DHT22;10678;51.002;4.786;2023-07-20T01:34:12;18.60;99.90
21039;DHT22;10678;51.002;4.786;2023-07-20T01:36:39;18.50;99.90
21039;DHT22;10678;51.002;4.786;2023-07-20T01:39:06;18.50;99.90
21039;DHT22;10678;51.002;4.786;2023-07-20T01:41:33;18.50;99.90
21039;DHT22;10678;51.002;4.786;2023-07-20T01:43:59;18.50;99.90
21039;DHT22;10678;51.002;4.786;2023-07-20T01:46:25;18.50;99.90
21039;DHT22;10678;51.002;4.786;2023-07-20T01:48:51;18.50;99.90
21039;DHT22;10678;51.002;4.786;2023-07-20T01:51:17;18.50;99.90
21039;DHT22;10678;51.002;4.786;2023-07-20T01:53:43;18.50;99.90
21039;DHT22;10678;51.002;4.786;2023-07-20T01:56:09;18.50;99.90
21039;DHT22;10678;51.002;4.786;2023-07-20T01:58:34;18.50;99.90
21039;DHT22;10678;51.002;4.786;2023-07-20T02:01:01;18.50;99.90
21039;DHT22;10678;51.002;4.786;2023-07-20T02:03:27;18.40;99.90
21039;DHT22;10678;51.002;4.786;2023-07-20T02:05:52;18.40;99.90
21039;DHT22;10678;51.002;4.786;2023-07-20T02:08:18;18.30;99.90
21039;DHT22;10678;51.002;4.786;2023-07-20T02:10:47;18.40;99.90
21039;DHT22;10678;51.002;4.786;2023-07-20T02:13:13;18.40;99.90
21039;DHT22;10678;51.002;4.786;2023-07-20T02:15:39;18.30;99.90
21039;DHT22;10678;51.002;4.786;2023-07-20T02:18:05;18.40;99.90
21039;DHT22;10678;51.002;4.786;2023-07-20T02:20:31;18.40;99.90
21039;DHT22;10678;51.002;4.786;2023-07-20T02:22:57;18.30;99.90
21039;DHT22;10678;51.002;4.786;2023-07-20T02:25:22;18.30;99.90
21039;DHT22;10678;51.002;4.786;2023-07-20T02:27:48;18.20;99.90
21039;DHT22;10678;51.002;4.786;2023-07-20T02:30:13;18.20;99.90
21039;DHT22;10678;51.002;4.786;2023-07-20T02:32:39;18.10;99.90
21039;DHT22;10678;51.002;4.786;2023-07-20T02:35:05;18.10;99.90
21039;DHT22;10678;51.002;4.786;2023-07-20T02:37:31;18.10;99.90
21039;DHT22;10678;51.002;4.786;2023-07-20T02:39:57;18.10;99.90
21039;DHT22;10678;51.002;4.786;2023-07-20T02:42:23;18.00;99.90
21039;DHT22;10678;51.002;4.786;2023-07-20T02:44:51;18.00;99.90
21039;DHT22;10678;51.002;4.786;2023-07-20T02:47:17;18.00;99.90
21039;DHT22;10678;51.002;4.786;2023-07-20T02:49:42;18.00;99.90
21039;DHT22;10678;51.002;4.786;2023-07-20T02:52:09;17.90;99.90
21039;DHT22;10678;51.002;4.786;2023-07-20T02:54:34;18.00;99.90
21039;DHT22;10678;51.002;4.786;2023-07-20T02:57:00;18.00;99.90
21039;DHT22;10678;51.002;4.786;2023-07-20T02:59:26;17.90;99.90
21039;DHT22;10678;51.002;4.786;2023-07-20T03:01:52;17.90;99.90
21039;DHT22;10678;51.002;4.786;2023-07-20T03:04:18;17.90;99.90
21039;DHT22;10678;51.002;4.786;2023-07-20T03:06:43;18.00;99.90
21039;DHT22;10678;51.002;4.786;2023-07-20T03:09:09;17.90;99.90
21039;DHT22;10678;51.002;4.786;2023-07-20T03:11:34;18.00;99.90
21039;DHT22;10678;51.002;4.786;2023-07-20T03:14:00;18.00;99.90
21039;DHT22;10678;51.002;4.786;2023-07-20T03:16:26;17.90;99.90
21039;DHT22;10678;51.002;4.786;2023-07-20T03:18:52;17.90;99.90
21039;DHT22;10678;51.002;4.786;2023-07-20T03:21:17;17.90;99.90
21039;DHT22;10678;51.002;4.786;2023-07-20T03:23:43;17.90;99.90
21039;DHT22;10678;51.002;4.786;2023-07-20T03:26:09;18.00;99.90
21039;DHT22;10678;51.002;4.786;2023-07-20T03:28:35;17.90;99.90
21039;DHT22;10678;51.002;4.786;2023-07-20T03:31:01;17.90;99.90
21039;DHT22;10678;51.002;4.786;2023-07-20T03:33:28;17.90;99.90
21039;DHT22;10678;51.002;4.786;2023-07-20T03:35:55;17.90;99.90
21039;DHT22;10678;51.002;4.786;2023-07-20T03:38:21;17.80;99.90
21039;DHT22;10678;51.002;4.786;2023-07-20T03:43:16;17.90;99.90
21039;DHT22;10678;51.002;4.786;2023-07-20T03:45:42;17.90;99.90
21039;DHT22;10678;51.002;4.786;2023-07-20T03:48:07;17.90;99.90
21039;DHT22;10678;51.002;4.786;2023-07-20T03:50:33;17.90;99.90
21039;DHT22;10678;51.002;4.786;2023-07-20T03:52:59;17.90;99.90
21039;DHT22;10678;51.002;4.786;2023-07-20T03:55:24;17.90;99.90
21039;DHT22;10678;51.002;4.786;2023-07-20T03:57:50;18.00;99.90
21039;DHT22;10678;51.002;4.786;2023-07-20T04:00:17;18.00;99.90
21039;DHT22;10678;51.002;4.786;2023-07-20T04:02:43;18.00;99.90
21039;DHT22;10678;51.002;4.786;2023-07-20T04:05:08;18.00;99.90
21039;DHT22;10678;51.002;4.786;2023-07-20T04:07:34;18.00;99.90
21039;DHT22;10678;51.002;4.786;2023-07-20T04:09:59;18.10;99.90
21039;DHT22;10678;51.002;4.786;2023-07-20T04:12:25;18.10;99.90
21039;DHT22;10678;51.002;4.786;2023-07-20T04:14:50;18.10;99.90
21039;DHT22;10678;51.002;4.786;2023-07-20T04:17:17;18.10;99.90
21039;DHT22;10678;51.002;4.786;2023-07-20T04:19:43;18.10;99.90
21039;DHT22;10678;51.002;4.786;2023-07-20T04:22:08;18.10;99.90
21039;DHT22;10678;51.002;4.786;2023-07-20T04:24:34;18.20;99.90
21039;DHT22;10678;51.002;4.786;2023-07-20T04:26:59;18.20;99.90
21039;DHT22;10678;51.002;4.786;2023-07-20T04:29:25;18.20;99.90
21039;DHT22;10678;51.002;4.786;2023-07-20T04:31:51;18.20;99.90
21039;DHT22;10678;51.002;4.786;2023-07-20T04:34:16;18.20;99.90
21039;DHT22;10678;51.002;4.786;2023-07-20T04:36:42;18.20;99.90
21039;DHT22;10678;51.002;4.786;2023-07-20T04:39:09;18.30;99.90
21039;DHT22;10678;51.002;4.786;2023-07-20T04:41:35;18.30;99.90
21039;DHT22;10678;51.002;4.786;2023-07-20T04:44:00;18.40;99.90
21039;DHT22;10678;51.002;4.786;2023-07-20T04:46:26;18.40;99.90
21039;DHT22;10678;51.002;4.786;2023-07-20T04:48:51;18.50;99.90
21039;DHT22;10678;51.002;4.786;2023-07-20T04:51:17;18.50;99.90
21039;DHT22;10678;51.002;4.786;2023-07-20T04:53:46;18.60;99.90
21039;DHT22;10678;51.002;4.786;2023-07-20T04:56:12;18.60;99.90
21039;DHT22;10678;51.002;4.786;2023-07-20T04:58:38;18.60;99.90
21039;DHT22;10678;51.002;4.786;2023-07-20T05:01:03;18.60;99.90
21039;DHT22;10678;51.002;4.786;2023-07-20T05:03:29;18.60;99.90
21039;DHT22;10678;51.002;4.786;2023-07-20T05:05:54;18.60;99.90
21039;DHT22;10678;51.002;4.786;2023-07-20T05:08:20;18.60;99.90
21039;DHT22;10678;51.002;4.786;2023-07-20T05:10:47;18.70;99.90
21039;DHT22;10678;51.002;4.786;2023-07-20T05:13:13;18.70;99.90
21039;DHT22;10678;51.002;4.786;2023-07-20T05:15:39;18.80;99.90
21039;DHT22;10678;51.002;4.786;2023-07-20T05:18:05;18.80;99.90
21039;DHT22;10678;51.002;4.786;2023-07-20T05:20:31;18.90;99.90
21039;DHT22;10678;51.002;4.786;2023-07-20T05:22:58;18.90;99.90
21039;DHT22;10678;51.002;4.786;2023-07-20T05:25:24;18.90;99.90
21039;DHT22;10678;51.002;4.786;2023-07-20T05:27:50;18.90;99.90
21039;DHT22;10678;51.002;4.786;2023-07-20T05:30:16;19.00;99.90
21039;DHT22;10678;51.002;4.786;2023-07-20T05:32:41;18.90;99.90
21039;DHT22;10678;51.002;4.786;2023-07-20T05:35:08;18.90;99.90
21039;DHT22;10678;51.002;4.786;2023-07-20T05:37:34;18.90;99.90
21039;DHT22;10678;51.002;4.786;2023-07-20T05:39:59;18.90;99.90
21039;DHT22;10678;51.002;4.786;2023-07-20T05:42:25;19.00;99.90
21039;DHT22;10678;51.002;4.786;2023-07-20T05:44:51;19.10;99.90
21039;DHT22;10678;51.002;4.786;2023-07-20T05:47:20;19.10;99.90
21039;DHT22;10678;51.002;4.786;2023-07-20T05:49:45;19.10;99.90
21039;DHT22;10678;51.002;4.786;2023-07-20T05:52:11;19.20;99.90
21039;DHT22;10678;51.002;4.786;2023-07-20T05:54:37;19.20;99.90
21039;DHT22;10678;51.002;4.786;2023-07-20T05:57:02;19.20;99.90
21039;DHT22;10678;51.002;4.786;2023-07-20T05:59:28;19.30;99.90
21039;DHT22;10678;51.002;4.786;2023-07-20T06:01:57;19.40;99.90
21039;DHT22;10678;51.002;4.786;2023-07-20T06:04:22;19.40;99.90
21039;DHT22;10678;51.002;4.786;2023-07-20T06:06:48;19.40;99.90
21039;DHT22;10678;51.002;4.786;2023-07-20T06:09:14;19.50;99.90
21039;DHT22;10678;51.002;4.786;2023-07-20T06:11:40;19.50;99.90
21039;DHT22;10678;51.002;4.786;2023-07-20T06:14:05;19.60;99.90
21039;DHT22;10678;51.002;4.786;2023-07-20T06:16:31;19.60;99.90
21039;DHT22;10678;51.002;4.786;2023-07-20T06:18:57;19.60;99.90
21039;DHT22;10678;51.002;4.786;2023-07-20T06:21:22;19.70;99.90
21039;DHT22;10678;51.002;4.786;2023-07-20T06:23:48;19.70;99.90
21039;DHT22;10678;51.002;4.786;2023-07-20T06:26:14;19.80;99.90
21039;DHT22;10678;51.002;4.786;2023-07-20T06:28:39;19.90;99.90
21039;DHT22;10678;51.002;4.786;2023-07-20T06:31:05;19.90;99.90
21039;DHT22;10678;51.002;4.786;2023-07-20T06:33:31;19.90;99.90
21039;DHT22;10678;51.002;4.786;2023-07-20T06:35:57;19.90;99.90
21039;DHT22;10678;51.002;4.786;2023-07-20T06:38:23;19.90;99.90
21039;DHT22;10678;51.002;4.786;2023-07-20T06:40:49;19.90;99.90
21039;DHT22;10678;51.002;4.786;2023-07-20T06:43:15;19.90;99.90
21039;DHT22;10678;51.002;4.786;2023-07-20T06:45:41;20.00;99.90
21039;DHT22;10678;51.002;4.786;2023-07-20T06:48:07;20.00;99.90
21039;DHT22;10678;51.002;4.786;2023-07-20T06:50:32;20.10;99.90
21039;DHT22;10678;51.002;4.786;2023-07-20T06:52:59;20.20;99.90
21039;DHT22;10678;51.002;4.786;2023-07-20T06:55:25;20.30;99.90
21039;DHT22;10678;51.002;4.786;2023-07-20T06:57:51;20.50;99.90
21039;DHT22;10678;51.002;4.786;2023-07-20T07:00:17;20.60;99.90
21039;DHT22;10678;51.002;4.786;2023-07-20T07:02:43;20.80;99.90
21039;DHT22;10678;51.002;4.786;2023-07-20T07:05:09;20.90;99.90
21039;DHT22;10678;51.002;4.786;2023-07-20T07:07:34;20.90;99.90
21039;DHT22;10678;51.002;4.786;2023-07-20T07:10:01;20.90;99.90
21039;DHT22;10678;51.002;4.786;2023-07-20T07:12:29;20.90;99.90
21039;DHT22;10678;51.002;4.786;2023-07-20T07:14:55;20.80;99.90
21039;DHT22;10678;51.002;4.786;2023-07-20T07:17:20;20.80;99.90
21039;DHT22;10678;51.002;4.786;2023-07-20T07:19:46;20.80;99.90
21039;DHT22;10678;51.002;4.786;2023-07-20T07:22:11;20.80;99.90
21039;DHT22;10678;51.002;4.786;2023-07-20T07:24:37;20.80;99.90
21039;DHT22;10678;51.002;4.786;2023-07-20T07:27:03;20.80;99.90
21039;DHT22;10678;51.002;4.786;2023-07-20T07:29:29;20.80;99.90
21039;DHT22;10678;51.002;4.786;2023-07-20T07:31:54;20.80;99.90
21039;DHT22;10678;51.002;4.786;2023-07-20T07:34:20;20.80;99.90
21039;DHT22;10678;51.002;4.786;2023-07-20T07:36:46;20.80;99.90
21039;DHT22;10678;51.002;4.786;2023-07-20T07:39:12;20.80;99.90
21039;DHT22;10678;51.002;4.786;2023-07-20T07:41:38;20.80;99.90
21039;DHT22;10678;51.002;4.786;2023-07-20T07:44:04;20.90;99.90
21039;DHT22;10678;51.002;4.786;2023-07-20T07:46:30;20.90;99.90
21039;DHT22;10678;51.002;4.786;2023-07-20T07:48:55;21.10;99.90
21039;DHT22;10678;51.002;4.786;2023-07-20T07:51:21;21.20;99.90
21039;DHT22;10678;51.002;4.786;2023-07-20T07:53:47;21.40;99.90
21039;DHT22;10678;51.002;4.786;2023-07-20T07:56:14;21.60;99.90
21039;DHT22;10678;51.002;4.786;2023-07-20T07:58:40;21.80;99.90
21039;DHT22;10678;51.002;4.786;2023-07-20T08:01:06;22.30;99.90
21039;DHT22;10678;51.002;4.786;2023-07-20T08:03:31;22.50;99.90
21039;DHT22;10678;51.002;4.786;2023-07-20T08:05:57;22.60;99.90
21039;DHT22;10678;51.002;4.786;2023-07-20T08:08:25;22.70;99.90
21039;DHT22;10678;51.002;4.786;2023-07-20T08:10:53;22.80;99.90
21039;DHT22;10678;51.002;4.786;2023-07-20T08:13:19;23.00;99.90
21039;DHT22;10678;51.002;4.786;2023-07-20T08:15:49;23.00;99.90
21039;DHT22;10678;51.002;4.786;2023-07-20T08:18:15;23.20;99.90
21039;DHT22;10678;51.002;4.786;2023-07-20T08:20:44;23.30;99.90
21039;DHT22;10678;51.002;4.786;2023-07-20T08:23:09;23.20;99.90
21039;DHT22;10678;51.002;4.786;2023-07-20T08:25:36;23.30;99.90
21039;DHT22;10678;51.002;4.786;2023-07-20T08:28:05;23.20;99.90
21039;DHT22;10678;51.002;4.786;2023-07-20T08:30:40;23.30;99.90
21039;DHT22;10678;51.002;4.786;2023-07-20T08:33:06;24.00;99.90
21039;DHT22;10678;51.002;4.786;2023-07-20T08:35:32;24.50;99.90
21039;DHT22;10678;51.002;4.786;2023-07-20T08:37:57;25.00;99.90
21039;DHT22;10678;51.002;4.786;2023-07-20T08:40:23;25.70;99.90
21039;DHT22;10678;51.002;4.786;2023-07-20T08:42:49;26.20;99.90
21039;DHT22;10678;51.002;4.786;2023-07-20T08:45:17;26.60;99.90
21039;DHT22;10678;51.002;4.786;2023-07-20T08:47:43;26.40;99.90
21039;DHT22;10678;51.002;4.786;2023-07-20T08:50:11;26.00;99.90
21039;DHT22;10678;51.002;4.786;2023-07-20T08:52:38;25.40;99.90
21039;DHT22;10678;51.002;4.786;2023-07-20T08:55:04;25.00;99.90
21039;DHT22;10678;51.002;4.786;2023-07-20T08:57:33;24.80;99.90
21039;DHT22;10678;51.002;4.786;2023-07-20T09:00:02;24.70;99.90
21039;DHT22;10678;51.002;4.786;2023-07-20T09:02:34;24.50;99.90
21039;DHT22;10678;51.002;4.786;2023-07-20T09:05:01;25.10;99.90
21039;DHT22;10678;51.002;4.786;2023-07-20T09:07:26;25.70;99.90
21039;DHT22;10678;51.002;4.786;2023-07-20T09:09:52;26.70;99.90
21039;DHT22;10678;51.002;4.786;2023-07-20T09:12:18;27.50;99.90
21039;DHT22;10678;51.002;4.786;2023-07-20T09:14:44;28.20;99.90
21039;DHT22;10678;51.002;4.786;2023-07-20T09:17:13;28.60;99.90
21039;DHT22;10678;51.002;4.786;2023-07-20T09:19:45;28.90;99.90
21039;DHT22;10678;51.002;4.786;2023-07-20T09:22:10;29.20;99.90
21039;DHT22;10678;51.002;4.786;2023-07-20T09:24:36;29.70;99.90
21039;DHT22;10678;51.002;4.786;2023-07-20T09:27:02;29.60;99.90
21039;DHT22;10678;51.002;4.786;2023-07-20T09:29:30;29.10;99.90
21039;DHT22;10678;51.002;4.786;2023-07-20T09:32:03;29.00;99.90
21039;DHT22;10678;51.002;4.786;2023-07-20T09:34:30;29.20;99.90
21039;DHT22;10678;51.002;4.786;2023-07-20T09:36:59;29.70;99.90
21039;DHT22;10678;51.002;4.786;2023-07-20T09:39:25;30.00;99.90
21039;DHT22;10678;51.002;4.786;2023-07-20T09:41:51;30.20;99.90
21039;DHT22;10678;51.002;4.786;2023-07-20T09:44:17;30.50;99.90
21039;DHT22;10678;51.002;4.786;2023-07-20T09:46:53;30.60;99.90
21039;DHT22;10678;51.002;4.786;2023-07-20T09:49:19;30.90;99.90
21039;DHT22;10678;51.002;4.786;2023-07-20T09:51:46;31.10;99.90
21039;DHT22;10678;51.002;4.786;2023-07-20T09:54:13;31.20;99.90
21039;DHT22;10678;51.002;4.786;2023-07-20T09:56:39;31.70;99.90
21039;DHT22;10678;51.002;4.786;2023-07-20T09:59:06;31.90;99.90
21039;DHT22;10678;51.002;4.786;2023-07-20T10:01:33;32.20;99.90
21039;DHT22;10678;51.002;4.786;2023-07-20T10:04:03;32.30;97.80
21039;DHT22;10678;51.002;4.786;2023-07-20T10:06:32;32.50;98.00
21039;DHT22;10678;51.002;4.786;2023-07-20T10:09:02;32.50;97.40
21039;DHT22;10678;51.002;4.786;2023-07-20T10:11:31;32.10;99.40
21039;DHT22;10678;51.002;4.786;2023-07-20T10:13:58;31.90;98.10
21039;DHT22;10678;51.002;4.786;2023-07-20T10:16:29;31.70;99.90
21039;DHT22;10678;51.002;4.786;2023-07-20T10:21:27;32.30;99.20
21039;DHT22;10678;51.002;4.786;2023-07-20T10:23:56;32.70;98.70
21039;DHT22;10678;51.002;4.786;2023-07-20T10:26:22;32.60;95.40
21039;DHT22;10678;51.002;4.786;2023-07-20T10:28:47;32.90;98.50
21039;DHT22;10678;51.002;4.786;2023-07-20T10:31:15;33.30;97.90
21039;DHT22;10678;51.002;4.786;2023-07-20T10:33:42;33.50;97.00
21039;DHT22;10678;51.002;4.786;2023-07-20T10:36:10;33.50;93.80
21039;DHT22;10678;51.002;4.786;2023-07-20T10:38:53;33.40;95.00
21039;DHT22;10678;51.002;4.786;2023-07-20T10:41:20;32.90;96.30
21039;DHT22;10678;51.002;4.786;2023-07-20T10:43:47;32.90;93.90
21039;DHT22;10678;51.002;4.786;2023-07-20T10:46:13;32.90;93.60
21039;DHT22;10678;51.002;4.786;2023-07-20T10:49:02;32.70;93.90
21039;DHT22;10678;51.002;4.786;2023-07-20T10:51:29;32.80;94.70
21039;DHT22;10678;51.002;4.786;2023-07-20T10:53:56;32.60;92.40
21039;DHT22;10678;51.002;4.786;2023-07-20T10:56:26;32.40;92.10
21039;DHT22;10678;51.002;4.786;2023-07-20T10:59:01;32.30;92.50
21039;DHT22;10678;51.002;4.786;2023-07-20T11:01:44;32.00;92.10
21039;DHT22;10678;51.002;4.786;2023-07-20T11:04:10;31.90;94.40
21039;DHT22;10678;51.002;4.786;2023-07-20T11:06:35;31.90;93.00
21039;DHT22;10678;51.002;4.786;2023-07-20T11:09:15;31.50;93.40
21039;DHT22;10678;51.002;4.786;2023-07-20T11:11:43;31.00;94.60
21039;DHT22;10678;51.002;4.786;2023-07-20T11:14:11;31.20;93.50
21039;DHT22;10678;51.002;4.786;2023-07-20T11:16:46;30.70;92.10
21039;DHT22;10678;51.002;4.786;2023-07-20T11:21:43;30.10;98.10
21039;DHT22;10678;51.002;4.786;2023-07-20T11:24:09;30.60;96.10
21039;DHT22;10678;51.002;4.786;2023-07-20T11:26:46;30.50;97.10
21039;DHT22;10678;51.002;4.786;2023-07-20T11:29:12;30.20;97.60
21039;DHT22;10678;51.002;4.786;2023-07-20T11:31:40;29.90;97.30
21039;DHT22;10678;51.002;4.786;2023-07-20T11:34:09;29.70;95.70
21039;DHT22;10678;51.002;4.786;2023-07-20T11:36:35;29.50;96.30
21039;DHT22;10678;51.002;4.786;2023-07-20T11:39:01;29.30;97.40
21039;DHT22;10678;51.002;4.786;2023-07-20T11:41:26;29.20;97.80
21039;DHT22;10678;51.002;4.786;2023-07-20T11:43:53;29.10;99.20
21039;DHT22;10678;51.002;4.786;2023-07-20T11:46:19;29.20;99.60
21039;DHT22;10678;51.002;4.786;2023-07-20T11:48:45;29.50;97.20
21039;DHT22;10678;51.002;4.786;2023-07-20T11:51:15;30.20;98.10
21039;DHT22;10678;51.002;4.786;2023-07-20T11:53:41;30.60;96.00
21039;DHT22;10678;51.002;4.786;2023-07-20T11:56:07;30.60;95.90
21039;DHT22;10678;51.002;4.786;2023-07-20T11:58:33;30.30;94.10
21039;DHT22;10678;51.002;4.786;2023-07-20T12:00:59;29.90;94.80
21039;DHT22;10678;51.002;4.786;2023-07-20T12:03:25;29.40;96.50
21039;DHT22;10678;51.002;4.786;2023-07-20T12:05:51;29.00;93.70
21039;DHT22;10678;51.002;4.786;2023-07-20T12:08:16;28.60;95.50
21039;DHT22;10678;51.002;4.786;2023-07-20T12:10:42;28.30;95.80
21039;DHT22;10678;51.002;4.786;2023-07-20T12:13:10;28.10;98.00
21039;DHT22;10678;51.002;4.786;2023-07-20T12:15:37;27.90;98.50
21039;DHT22;10678;51.002;4.786;2023-07-20T12:18:03;27.60;98.80
21039;DHT22;10678;51.002;4.786;2023-07-20T12:20:31;27.30;99.90
21039;DHT22;10678;51.002;4.786;2023-07-20T12:23:00;27.20;99.70
21039;DHT22;10678;51.002;4.786;2023-07-20T12:28:11;27.00;99.90
21039;DHT22;10678;51.002;4.786;2023-07-20T12:30:41;26.90;99.90
21039;DHT22;10678;51.002;4.786;2023-07-20T12:33:08;26.80;99.90
21039;DHT22;10678;51.002;4.786;2023-07-20T12:35:34;26.80;99.90
21039;DHT22;10678;51.002;4.786;2023-07-20T12:38:00;26.60;99.90
21039;DHT22;10678;51.002;4.786;2023-07-20T12:40:26;26.50;99.90
21039;DHT22;10678;51.002;4.786;2023-07-20T12:42:52;26.80;99.90
21039;DHT22;10678;51.002;4.786;2023-07-20T12:45:17;27.60;99.90
21039;DHT22;10678;51.002;4.786;2023-07-20T12:47:43;28.50;99.90
21039;DHT22;10678;51.002;4.786;2023-07-20T12:50:12;29.40;99.90
21039;DHT22;10678;51.002;4.786;2023-07-20T12:52:39;30.20;99.00
21039;DHT22;10678;51.002;4.786;2023-07-20T12:55:06;30.80;98.70
21039;DHT22;10678;51.002;4.786;2023-07-20T12:57:34;31.00;96.70
21039;DHT22;10678;51.002;4.786;2023-07-20T13:00:00;30.90;95.10
21039;DHT22;10678;51.002;4.786;2023-07-20T13:02:27;31.20;96.80
21039;DHT22;10678;51.002;4.786;2023-07-20T13:04:52;31.60;95.10
21039;DHT22;10678;51.002;4.786;2023-07-20T13:07:32;31.70;93.40
21039;DHT22;10678;51.002;4.786;2023-07-20T13:09:59;31.60;94.20
21039;DHT22;10678;51.002;4.786;2023-07-20T13:12:26;31.50;94.30
21039;DHT22;10678;51.002;4.786;2023-07-20T13:14:52;31.10;93.90
21039;DHT22;10678;51.002;4.786;2023-07-20T13:17:18;30.60;93.90
21039;DHT22;10678;51.002;4.786;2023-07-20T13:19:44;30.10;93.30
21039;DHT22;10678;51.002;4.786;2023-07-20T13:22:10;29.60;96.00
21039;DHT22;10678;51.002;4.786;2023-07-20T13:24:36;29.20;96.30
21039;DHT22;10678;51.002;4.786;2023-07-20T13:27:02;28.90;95.50
21039;DHT22;10678;51.002;4.786;2023-07-20T13:29:28;28.50;96.10
21039;DHT22;10678;51.002;4.786;2023-07-20T13:31:53;28.20;96.20
21039;DHT22;10678;51.002;4.786;2023-07-20T13:34:19;27.90;98.10
21039;DHT22;10678;51.002;4.786;2023-07-20T13:36:44;27.50;97.80
21039;DHT22;10678;51.002;4.786;2023-07-20T13:39:10;27.20;98.60
21039;DHT22;10678;51.002;4.786;2023-07-20T13:41:35;27.10;99.50
21039;DHT22;10678;51.002;4.786;2023-07-20T13:44:01;27.10;99.90
21039;DHT22;10678;51.002;4.786;2023-07-20T13:46:26;27.10;99.90
21039;DHT22;10678;51.002;4.786;2023-07-20T13:48:52;27.00;99.90
21039;DHT22;10678;51.002;4.786;2023-07-20T13:51:18;26.80;99.90
21039;DHT22;10678;51.002;4.786;2023-07-20T13:53:47;26.70;99.90
21039;DHT22;10678;51.002;4.786;2023-07-20T13:56:13;26.60;99.90
21039;DHT22;10678;51.002;4.786;2023-07-20T13:58:38;26.50;99.90
21039;DHT22;10678;51.002;4.786;2023-07-20T14:01:04;26.20;99.90
21039;DHT22;10678;51.002;4.786;2023-07-20T14:03:29;26.10;99.90
21039;DHT22;10678;51.002;4.786;2023-07-20T14:05:55;25.90;99.90
21039;DHT22;10678;51.002;4.786;2023-07-20T14:08:22;25.80;99.90
21039;DHT22;10678;51.002;4.786;2023-07-20T14:10:48;25.70;99.90
21039;DHT22;10678;51.002;4.786;2023-07-20T14:13:14;25.60;99.90
21039;DHT22;10678;51.002;4.786;2023-07-20T14:15:40;25.40;99.90
21039;DHT22;10678;51.002;4.786;2023-07-20T14:18:05;25.40;99.90
21039;DHT22;10678;51.002;4.786;2023-07-20T14:20:31;25.20;99.90
21039;DHT22;10678;51.002;4.786;2023-07-20T14:22:56;25.10;99.90
21039;DHT22;10678;51.002;4.786;2023-07-20T14:25:22;25.10;99.90
21039;DHT22;10678;51.002;4.786;2023-07-20T14:27:48;25.00;99.90
21039;DHT22;10678;51.002;4.786;2023-07-20T14:30:13;25.00;99.90
21039;DHT22;10678;51.002;4.786;2023-07-20T14:32:40;24.80;99.90
21039;DHT22;10678;51.002;4.786;2023-07-20T14:35:06;24.80;99.90
21039;DHT22;10678;51.002;4.786;2023-07-20T14:37:32;24.80;99.90
21039;DHT22;10678;51.002;4.786;2023-07-20T14:39:58;24.80;99.90
21039;DHT22;10678;51.002;4.786;2023-07-20T14:42:24;24.80;99.90
21039;DHT22;10678;51.002;4.786;2023-07-20T14:44:49;24.80;99.90
21039;DHT22;10678;51.002;4.786;2023-07-20T14:47:15;24.80;99.90
21039;DHT22;10678;51.002;4.786;2023-07-20T14:49:42;24.80;99.90
21039;DHT22;10678;51.002;4.786;2023-07-20T14:52:07;24.90;99.90
21039;DHT22;10678;51.002;4.786;2023-07-20T14:54:33;24.90;99.90
21039;DHT22;10678;51.002;4.786;2023-07-20T14:56:59;25.00;99.90
21039;DHT22;10678;51.002;4.786;2023-07-20T14:59:24;25.10;99.90
21039;DHT22;10678;51.002;4.786;2023-07-20T15:01:50;25.20;99.90
21039;DHT22;10678;51.002;4.786;2023-07-20T15:04:16;25.20;99.90
21039;DHT22;10678;51.002;4.786;2023-07-20T15:06:42;25.20;99.90
21039;DHT22;10678;51.002;4.786;2023-07-20T15:09:07;25.20;99.90
21039;DHT22;10678;51.002;4.786;2023-07-20T15:11:35;25.20;99.90
21039;DHT22;10678;51.002;4.786;2023-07-20T15:14:01;25.30;99.90
21039;DHT22;10678;51.002;4.786;2023-07-20T15:16:27;25.30;99.90
21039;DHT22;10678;51.002;4.786;2023-07-20T15:18:52;25.20;99.90
21039;DHT22;10678;51.002;4.786;2023-07-20T15:21:18;25.00;99.90
21039;DHT22;10678;51.002;4.786;2023-07-20T15:23:44;25.00;99.90
21039;DHT22;10678;51.002;4.786;2023-07-20T15:26:10;24.90;99.90
21039;DHT22;10678;51.002;4.786;2023-07-20T15:28:37;24.90;99.90
21039;DHT22;10678;51.002;4.786;2023-07-20T15:31:03;25.00;99.90
21039;DHT22;10678;51.002;4.786;2023-07-20T15:33:29;25.10;99.90
21039;DHT22;10678;51.002;4.786;2023-07-20T15:35:55;25.20;99.90
21039;DHT22;10678;51.002;4.786;2023-07-20T15:38:21;25.10;99.90
21039;DHT22;10678;51.002;4.786;2023-07-20T15:40:47;25.10;99.90
21039;DHT22;10678;51.002;4.786;2023-07-20T15:43:14;25.20;99.90